createdAt,value
2022-11-16T00:02:28.591Z,43.53
2022-11-16T00:05:30.412Z,32.28
2022-11-16T00:08:34.702Z,37.67
2022-11-16T00:11:38.059Z,40.75
2022-11-16T00:14:39.766Z,26.15
2022-11-16T00:17:41.418Z,70.43
2022-11-16T00:20:43.097Z,13.65
2022-11-16T00:23:44.853Z,65.95
2022-11-16T00:26:47.408Z,39.55
2022-11-16T00:29:49.010Z,41.60
2022-11-16T00:32:50.764Z,11.57
2022-11-16T00:35:53.765Z,21.38
2022-11-16T00:38:55.458Z,19.95
2022-11-16T00:41:57.221Z,22.42
2022-11-16T00:44:58.859Z,30.70
2022-11-16T00:48:00.859Z,8.60
2022-11-16T00:51:03.860Z,28.60
2022-11-16T00:54:07.431Z,20.58
2022-11-16T00:57:10.643Z,19.33
2022-11-16T01:00:13.692Z,14.57
2022-11-16T01:03:15.612Z,5.28
2022-11-16T01:06:17.528Z,16.77
2022-11-16T01:09:19.257Z,5.22
2022-11-16T01:12:22.730Z,6.78
2022-11-16T01:15:26.825Z,9.80
2022-11-16T01:18:28.473Z,15.02
2022-11-16T01:21:30.132Z,14.90
2022-11-16T01:24:32.294Z,17.35
2022-11-16T01:27:33.894Z,17.48
2022-11-16T01:30:37.953Z,5.30
2022-11-16T01:33:43.779Z,5.07
2022-11-16T01:37:01.099Z,9.77
2022-11-16T01:40:07.298Z,5.25
2022-11-16T01:43:25.278Z,5.68
2022-11-16T01:46:32.863Z,5.18
2022-11-16T01:49:41.697Z,5.82
2022-11-16T01:52:56.820Z,5.45
2022-11-16T01:56:00.868Z,6.50
2022-11-16T01:59:08.477Z,5.82
2022-11-16T02:02:10.341Z,13.23
2022-11-16T02:05:17.904Z,12.02
2022-11-16T02:09:06.473Z,6.40
2022-11-16T02:12:28.132Z,6.45
2022-11-16T02:15:45.241Z,6.78
2022-11-16T02:19:25.109Z,7.82
2022-11-16T02:22:56.481Z,7.50
2022-11-16T02:26:35.391Z,6.72
2022-11-16T02:29:44.888Z,7.65
2022-11-16T02:32:55.619Z,7.90
2022-11-16T02:36:01.114Z,6.70
2022-11-16T02:39:09.136Z,10.18
2022-11-16T02:42:15.074Z,8.60
2022-11-16T02:45:22.290Z,13.27
2022-11-16T02:48:31.782Z,13.18
2022-11-16T02:51:37.023Z,41.45
2022-11-16T02:54:38.707Z,45.95
2022-11-16T02:58:00.735Z,37.67
2022-11-16T03:01:09.039Z,54.33
2022-11-16T03:04:39.380Z,49.00
2022-11-16T03:07:49.306Z,75.97
2022-11-16T03:11:13.835Z,55.70
2022-11-16T03:14:20.751Z,80.88
2022-11-16T03:17:32.632Z,85.63
2022-11-16T03:20:36.010Z,79.22
2022-11-16T03:23:38.689Z,69.00
2022-11-16T03:26:51.204Z,36.03
2022-11-16T03:33:21.873Z,46.15
2022-11-16T03:36:30.309Z,27.45
2022-11-16T03:39:38.101Z,17.55
2022-11-16T03:42:42.989Z,28.33
2022-11-16T03:45:46.936Z,7.10
2022-11-16T03:48:48.873Z,5.97
2022-11-16T03:51:59.385Z,5.45
2022-11-16T03:55:01.148Z,6.93
2022-11-16T03:58:02.890Z,12.52
2022-11-16T04:01:04.699Z,46.95
2022-11-16T04:04:06.871Z,45.15
2022-11-16T04:07:28.475Z,42.67
2022-11-16T04:10:49.052Z,36.38
2022-11-16T04:14:10.176Z,39.47
2022-11-16T04:17:36.285Z,5.40
2022-11-16T04:20:56.711Z,13.48
2022-11-16T04:24:13.902Z,5.00
2022-11-16T04:27:35.920Z,7.60
2022-11-16T04:30:56.406Z,12.75
2022-11-16T04:34:16.941Z,9.65
2022-11-16T04:37:42.615Z,40.95
2022-11-16T04:40:44.912Z,7.25
2022-11-16T04:43:47.995Z,27.83
2022-11-16T04:47:07.817Z,17.73
2022-11-16T04:50:12.576Z,30.20
2022-11-16T04:53:15.823Z,8.02
2022-11-16T04:56:21.400Z,8.88
2022-11-16T04:59:23.701Z,10.93
2022-11-16T05:02:26.041Z,13.83
2022-11-16T05:05:31.599Z,8.35
2022-11-16T05:08:34.987Z,7.20
2022-11-16T05:11:38.986Z,7.28
2022-11-16T05:14:41.992Z,7.20
2022-11-16T05:17:43.786Z,6.57
2022-11-16T05:21:02.230Z,6.47
2022-11-16T05:24:31.491Z,8.93
2022-11-16T05:27:33.489Z,10.43
2022-11-16T05:30:35.201Z,7.97
2022-11-16T05:36:40.415Z,7.32
2022-11-16T05:39:42.517Z,7.68
2022-11-16T05:42:44.243Z,14.63
2022-11-16T05:45:46.308Z,17.08
2022-11-16T05:48:50.274Z,11.45
2022-11-16T05:51:52.579Z,6.10
2022-11-16T05:54:56.251Z,13.27
2022-11-16T05:57:57.949Z,7.60
2022-11-16T06:00:59.813Z,6.90
2022-11-16T06:04:02.751Z,7.25
2022-11-16T06:07:06.533Z,7.78
2022-11-16T06:10:10.637Z,33.53
2022-11-16T06:13:17.901Z,33.50
2022-11-16T06:16:19.946Z,43.05
2022-11-16T06:19:22.121Z,40.17
2022-11-16T06:22:26.892Z,39.15
2022-11-16T06:25:30.823Z,29.70
2022-11-16T06:28:33.861Z,5.82
2022-11-16T06:31:35.760Z,6.00
2022-11-16T06:34:38.218Z,5.63
2022-11-16T06:37:39.981Z,4.45
2022-11-16T06:40:42.559Z,4.90
2022-11-16T06:43:44.506Z,6.57
2022-11-16T06:46:46.416Z,4.63
2022-11-16T06:49:48.097Z,9.07
2022-11-16T06:52:55.811Z,4.50
2022-11-16T06:56:06.017Z,18.77
2022-11-16T06:59:13.269Z,16.02
2022-11-16T07:02:16.124Z,25.10
2022-11-16T07:05:19.725Z,32.65
2022-11-16T07:08:22.142Z,24.00
2022-11-16T07:11:23.889Z,19.35
2022-11-16T07:14:26.439Z,38.60
2022-11-16T07:17:28.021Z,47.30
2022-11-16T07:20:37.545Z,57.13
2022-11-16T07:23:40.212Z,64.10
2022-11-16T07:26:44.862Z,36.55
2022-11-16T07:29:51.323Z,45.78
2022-11-16T07:33:07.797Z,57.38
2022-11-16T07:36:47.985Z,53.20
2022-11-16T07:42:52.728Z,40.17
2022-11-16T07:49:35.604Z,28.00
2022-11-16T07:52:46.478Z,37.45
2022-11-16T07:55:54.802Z,41.45
2022-11-16T07:58:59.158Z,22.60
2022-11-16T08:02:00.941Z,77.60
2022-11-16T08:05:03.089Z,51.30
2022-11-16T08:08:05.207Z,34.38
2022-11-16T08:11:11.500Z,30.10
2022-11-16T08:14:14.040Z,47.38
2022-11-16T08:17:15.989Z,62.40
2022-11-16T08:20:18.850Z,70.95
2022-11-16T08:23:22.079Z,66.07
2022-11-16T08:26:23.859Z,55.97
2022-11-16T08:29:34.016Z,54.97
2022-11-16T08:32:38.097Z,67.57
2022-11-16T08:35:39.873Z,68.18
2022-11-16T08:38:42.374Z,64.67
2022-11-16T08:41:44.441Z,55.20
2022-11-16T08:44:46.591Z,64.25
2022-11-16T08:48:03.153Z,59.45
2022-11-16T08:51:17.599Z,79.40
2022-11-16T08:54:25.015Z,77.95
2022-11-16T08:57:27.338Z,110.22
2022-11-16T09:00:33.373Z,96.40
2022-11-16T09:03:35.091Z,85.15
2022-11-16T09:06:37.079Z,127.80
2022-11-16T09:09:38.810Z,97.38
2022-11-16T09:12:40.631Z,119.70
2022-11-16T09:15:42.449Z,110.30
2022-11-16T09:18:46.413Z,54.05
2022-11-16T09:21:48.510Z,55.28
2022-11-16T09:24:50.458Z,57.22
2022-11-16T09:27:54.970Z,56.20
2022-11-16T09:31:01.140Z,49.05
2022-11-16T09:34:03.307Z,41.72
2022-11-16T09:37:05.006Z,49.55
2022-11-16T09:40:07.624Z,45.28
2022-11-16T09:43:27.185Z,29.98
2022-11-16T09:46:36.771Z,44.33
2022-11-16T09:49:43.872Z,58.63
2022-11-16T09:52:51.087Z,54.47
2022-11-16T09:56:04.074Z,45.90
2022-11-16T09:59:18.391Z,53.25
2022-11-16T10:02:28.759Z,58.38
2022-11-16T10:05:43.482Z,59.22
2022-11-16T10:08:51.678Z,56.85
2022-11-16T10:12:02.802Z,51.35
2022-11-16T10:15:35.587Z,61.67
2022-11-16T10:18:49.627Z,62.80
2022-11-16T10:22:18.985Z,66.25
2022-11-16T10:25:23.079Z,63.80
2022-11-16T10:28:55.474Z,67.82
2022-11-16T10:32:08.895Z,63.55
2022-11-16T10:38:17.761Z,61.78
2022-11-16T10:41:28.731Z,74.53
2022-11-16T10:44:36.902Z,77.55
2022-11-16T10:48:00.392Z,63.17
2022-11-16T10:51:02.137Z,52.63
2022-11-16T10:54:15.470Z,57.67
2022-11-16T10:57:18.114Z,55.15
2022-11-16T11:00:33.465Z,40.03
2022-11-16T11:03:35.747Z,35.35
2022-11-16T11:06:39.022Z,39.73
2022-11-16T11:09:43.254Z,52.85
2022-11-16T11:13:10.248Z,44.03
2022-11-16T11:16:17.994Z,51.65
2022-11-16T11:19:24.315Z,55.88
2022-11-16T11:22:26.711Z,52.50
2022-11-16T11:25:32.572Z,51.83
2022-11-16T11:28:46.376Z,43.20
2022-11-16T11:31:51.459Z,22.27
2022-11-16T11:34:54.804Z,22.77
2022-11-16T11:38:07.267Z,29.85
2022-11-16T11:41:19.002Z,22.83
2022-11-16T11:44:20.756Z,31.92
2022-11-16T11:47:57.897Z,36.50
2022-11-16T11:51:10.620Z,38.08
2022-11-16T11:54:24.236Z,33.17
2022-11-16T11:57:26.690Z,40.15
2022-11-16T12:00:40.792Z,24.88
2022-11-16T12:04:10.706Z,45.58
2022-11-16T12:07:42.448Z,56.75
2022-11-16T12:10:55.633Z,54.15
2022-11-16T12:14:34.322Z,43.05
2022-11-16T12:17:44.759Z,34.13
2022-11-16T12:20:55.436Z,24.35
2022-11-16T12:24:21.727Z,28.65
2022-11-16T12:28:04.083Z,39.72
2022-11-16T12:31:23.765Z,48.90
2022-11-16T12:34:45.582Z,57.03
2022-11-16T12:38:25.940Z,60.22
2022-11-16T12:42:00.433Z,64.07
2022-11-16T12:45:25.343Z,63.67
2022-11-16T12:48:55.650Z,66.88
2022-11-16T12:51:57.186Z,74.13
2022-11-16T12:55:28.218Z,74.53
2022-11-16T12:59:07.961Z,82.78
2022-11-16T13:02:29.778Z,75.88
2022-11-16T13:05:52.207Z,79.32
2022-11-16T13:09:06.754Z,79.35
2022-11-16T13:12:15.220Z,75.00
2022-11-16T13:15:22.063Z,80.82
2022-11-16T13:18:25.270Z,72.95
2022-11-16T13:21:39.023Z,75.00
2022-11-16T13:24:50.929Z,63.53
2022-11-16T13:27:52.541Z,70.30
2022-11-16T13:31:08.789Z,68.35
2022-11-16T13:34:23.346Z,65.18
2022-11-16T13:37:34.159Z,69.97
2022-11-16T13:40:35.908Z,63.35
2022-11-16T13:43:47.522Z,55.03
2022-11-16T13:47:04.498Z,68.47
2022-11-16T13:50:18.656Z,68.85
2022-11-16T13:57:31.230Z,71.63
2022-11-16T14:00:35.885Z,80.43
2022-11-16T14:03:41.643Z,85.32
2022-11-16T14:06:43.174Z,84.28
2022-11-16T14:09:47.795Z,74.35
2022-11-16T14:12:54.319Z,56.30
2022-11-16T14:16:25.209Z,61.72
2022-11-16T14:19:49.113Z,22.85
2022-11-16T14:23:11.450Z,64.28
2022-11-16T14:26:22.301Z,71.93
2022-11-16T14:29:37.126Z,84.90
2022-11-16T14:32:50.427Z,77.60
2022-11-16T14:35:54.207Z,75.53
2022-11-16T14:38:55.874Z,77.95
2022-11-16T14:42:01.736Z,73.80
2022-11-16T14:45:13.388Z,69.70
2022-11-16T14:48:17.582Z,70.10
2022-11-16T14:51:39.109Z,71.60
2022-11-16T14:54:57.074Z,72.25
2022-11-16T14:58:14.116Z,73.95
2022-11-16T15:01:18.205Z,72.60
2022-11-16T15:04:22.379Z,84.75
2022-11-16T15:07:26.189Z,77.20
2022-11-16T15:10:29.360Z,75.10
2022-11-16T15:13:31.098Z,84.68
2022-11-16T15:16:32.759Z,80.65
2022-11-16T15:19:34.431Z,71.55
2022-11-16T15:22:41.310Z,72.57
2022-11-16T15:25:52.594Z,65.45
2022-11-16T15:28:55.320Z,70.85
2022-11-16T15:31:57.003Z,71.82
2022-11-16T15:35:03.950Z,68.57
2022-11-16T15:38:22.868Z,59.78
2022-11-16T15:41:27.930Z,66.00
2022-11-16T15:44:30.925Z,59.15
2022-11-16T15:47:32.564Z,57.10
2022-11-16T15:50:34.268Z,45.15
2022-11-16T15:53:44.772Z,52.70
2022-11-16T15:56:46.585Z,53.33
2022-11-16T15:59:50.660Z,37.28
2022-11-16T16:02:52.284Z,48.88
2022-11-16T16:05:54.912Z,53.92
2022-11-16T16:09:30.047Z,4.10
2022-11-16T16:12:31.654Z,3.92
2022-11-16T16:15:36.506Z,28.08
2022-11-16T16:18:43.200Z,37.92
2022-11-16T16:21:46.995Z,49.17
2022-11-16T16:24:51.127Z,53.75
2022-11-16T16:27:52.896Z,37.53
2022-11-16T16:30:54.622Z,57.80
2022-11-16T16:33:56.315Z,53.35
2022-11-16T16:36:57.917Z,56.90
2022-11-16T16:40:00.353Z,60.47
2022-11-16T16:43:02.206Z,55.37
2022-11-16T16:46:05.710Z,63.72
2022-11-16T16:49:08.058Z,65.72
2022-11-16T16:52:12.000Z,55.55
2022-11-16T16:55:13.909Z,66.55
2022-11-16T16:58:16.256Z,64.72
2022-11-16T17:01:24.620Z,57.90
2022-11-16T17:04:26.637Z,53.47
2022-11-16T17:07:28.510Z,55.78
2022-11-16T17:10:30.472Z,60.38
2022-11-16T17:13:32.349Z,62.10
2022-11-16T17:16:35.422Z,60.92
2022-11-16T17:19:37.020Z,56.58
2022-11-16T17:22:38.790Z,88.07
2022-11-16T17:25:40.475Z,83.35
2022-11-16T17:28:42.062Z,88.45
2022-11-16T17:31:46.148Z,92.97
2022-11-16T17:34:47.711Z,94.95
2022-11-16T17:37:49.759Z,88.18
2022-11-16T17:40:51.344Z,83.55
2022-11-16T17:43:54.664Z,95.00
2022-11-16T17:46:56.377Z,83.05
2022-11-16T17:49:58.387Z,73.05
2022-11-16T17:53:00.278Z,62.03
2022-11-16T17:56:03.196Z,68.25
2022-11-16T17:59:04.871Z,71.55
2022-11-16T18:02:06.939Z,75.88
2022-11-16T18:05:09.040Z,86.45
2022-11-16T18:08:10.689Z,79.28
2022-11-16T18:11:20.712Z,76.10
2022-11-16T18:14:22.951Z,72.68
2022-11-16T18:17:24.692Z,88.82
2022-11-16T18:20:27.971Z,96.43
2022-11-16T18:26:31.221Z,64.63
2022-11-16T18:29:32.865Z,58.55
2022-11-16T18:32:34.643Z,63.13
2022-11-16T18:35:36.234Z,69.70
2022-11-16T18:38:38.475Z,42.38
2022-11-16T18:41:50.165Z,41.40
2022-11-16T18:44:56.360Z,65.82
2022-11-16T18:47:57.979Z,61.13
2022-11-16T18:51:06.169Z,61.03
2022-11-16T18:54:08.723Z,63.22
2022-11-16T18:57:10.378Z,39.70
2022-11-16T19:00:12.955Z,50.67
2022-11-16T19:03:15.396Z,43.70
2022-11-16T19:06:17.912Z,22.15
2022-11-16T19:09:19.770Z,49.63
2022-11-16T19:12:21.568Z,60.30
2022-11-16T19:15:25.439Z,61.83
2022-11-16T19:18:28.059Z,47.03
2022-11-16T19:21:32.753Z,77.70
2022-11-16T19:24:34.372Z,87.18
2022-11-16T19:27:36.223Z,72.22
2022-11-16T19:30:37.903Z,32.10
2022-11-16T19:33:40.137Z,27.85
2022-11-16T19:36:41.931Z,30.52
2022-11-16T19:39:43.515Z,29.83
2022-11-16T19:42:46.668Z,32.55
2022-11-16T19:45:48.454Z,29.77
2022-11-16T19:48:50.950Z,37.92
2022-11-16T19:51:52.612Z,31.73
2022-11-16T19:54:54.354Z,34.35
2022-11-16T19:57:56.006Z,36.10
2022-11-16T20:01:23.922Z,31.77
2022-11-16T20:04:27.233Z,19.08
2022-11-16T20:07:30.077Z,33.28
2022-11-16T20:10:32.285Z,26.55
2022-11-16T20:13:34.126Z,24.15
2022-11-16T20:16:39.529Z,43.75
2022-11-16T20:19:41.745Z,50.92
2022-11-16T20:22:44.216Z,36.90
2022-11-16T20:25:45.978Z,25.77
2022-11-16T20:28:50.862Z,69.75
2022-11-16T20:31:52.491Z,88.07
2022-11-16T20:34:54.263Z,96.90
2022-11-16T20:37:55.856Z,69.70
2022-11-16T20:40:57.455Z,63.17
2022-11-16T20:44:01.528Z,70.07
2022-11-16T20:47:03.265Z,67.35
2022-11-16T20:50:05.326Z,48.67
2022-11-16T20:53:06.936Z,55.67
2022-11-16T20:56:10.949Z,67.47
2022-11-16T20:59:14.190Z,80.97
2022-11-16T21:02:15.964Z,86.07
2022-11-16T21:05:17.673Z,78.13
2022-11-16T21:08:19.323Z,82.40
2022-11-16T21:11:26.452Z,73.63
2022-11-16T21:14:30.652Z,44.15
2022-11-16T21:17:32.443Z,32.53
2022-11-16T21:20:34.108Z,37.33
2022-11-16T21:23:37.388Z,37.40
2022-11-16T21:29:40.949Z,30.58
2022-11-16T21:32:42.806Z,48.00
2022-11-16T21:35:44.845Z,35.90
2022-11-16T21:38:47.126Z,49.65
2022-11-16T21:41:48.728Z,55.88
2022-11-16T21:44:50.487Z,47.92
2022-11-16T21:47:52.430Z,44.95
2022-11-16T21:51:01.559Z,49.50
2022-11-16T21:54:03.440Z,46.75
2022-11-16T21:57:05.342Z,41.13
2022-11-16T22:00:07.683Z,40.30
2022-11-16T22:03:13.289Z,36.35
2022-11-16T22:06:34.972Z,35.20
2022-11-16T22:09:37.248Z,36.25
2022-11-16T22:12:39.320Z,37.00
2022-11-16T22:15:40.904Z,58.80
2022-11-16T22:18:42.954Z,37.50
2022-11-16T22:21:44.564Z,59.78
2022-11-16T22:24:47.063Z,30.52
2022-11-16T22:28:13.785Z,68.73
2022-11-16T22:31:13.584Z,50.13
2022-11-16T22:34:15.347Z,50.88
2022-11-16T22:37:17.978Z,59.42
2022-11-16T22:40:19.542Z,48.17
2022-11-16T22:43:23.731Z,68.20
2022-11-16T22:46:25.346Z,62.28
2022-11-16T22:49:27.045Z,61.20
2022-11-16T22:52:28.837Z,61.30
2022-11-16T22:55:30.807Z,62.70
2022-11-16T22:58:32.441Z,55.45
2022-11-16T23:01:34.071Z,66.30
2022-11-16T23:04:35.743Z,65.65
2022-11-16T23:07:37.390Z,66.15
2022-11-16T23:10:58.969Z,67.90
2022-11-16T23:14:20.093Z,60.28
2022-11-16T23:17:21.810Z,71.53
2022-11-16T23:20:41.885Z,20.88
2022-11-16T23:24:03.795Z,35.00
2022-11-16T23:27:23.900Z,38.50
2022-11-16T23:30:26.521Z,26.05
2022-11-16T23:33:46.817Z,32.40
2022-11-16T23:36:48.395Z,72.78
2022-11-16T23:39:49.982Z,48.38
2022-11-16T23:43:11.967Z,71.50
2022-11-16T23:46:13.573Z,62.15
2022-11-16T23:49:15.278Z,81.88
2022-11-16T23:52:16.803Z,46.28
2022-11-16T23:55:18.445Z,52.40
2022-11-16T23:58:20.082Z,52.33
